sensor_id;sensor_type;location;lat;lon;timestamp;pressure;altitude;pressure_sealevel;temperature;humidity
23253;BME280;11795;47.054;15.408;2023-04-07T00:00:04;97310;;;3.5;50.9
23253;BME280;11795;47.054;15.408;2023-04-07T00:02:00;97320;;;3.4;51.3
23253;BME280;11795;47.054;15.408;2023-04-07T00:04:00;97310;;;3.6;50.9
23253;BME280;11795;47.054;15.408;2023-04-07T00:06:00;97310;;;3.4;51.2
23253;BME280;11795;47.054;15.408;2023-04-07T00:08:00;97320;;;3.2;51.6
23253;BME280;11795;47.054;15.408;2023-04-07T00:10:00;97310;;;3.3;52.3
23253;BME280;11795;47.054;15.408;2023-04-07T00:12:01;97320;;;3.2;52.5
23253;BME280;11795;47.054;15.408;2023-04-07T00:14:00;97310;;;3.4;51.9
23253;BME280;11795;47.054;15.408;2023-04-07T00:16:00;97310;;;3.2;52.5
23253;BME280;11795;47.054;15.408;2023-04-07T00:18:00;97320;;;3.1;52.7
23253;BME280;11795;47.054;15.408;2023-04-07T00:20:00;97320;;;3.2;52.1
23253;BME280;11795;47.054;15.408;2023-04-07T00:22:00;97320;;;3.1;52.3
23253;BME280;11795;47.054;15.408;2023-04-07T00:24:00;97310;;;3.3;51.9
23253;BME280;11795;47.054;15.408;2023-04-07T00:26:00;97310;;;3.2;52.0
23253;BME280;11795;47.054;15.408;2023-04-07T00:28:00;97320;;;3.1;52.1
23253;BME280;11795;47.054;15.408;2023-04-07T00:30:00;97310;;;3.3;51.8
23253;BME280;11795;47.054;15.408;2023-04-07T00:32:00;97310;;;3.1;52.4
23253;BME280;11795;47.054;15.408;2023-04-07T00:34:00;97300;;;3.3;52.1
23253;BME280;11795;47.054;15.408;2023-04-07T00:36:00;97310;;;3.1;52.3
23253;BME280;11795;47.054;15.408;2023-04-07T00:38:00;97310;;;3.0;52.6
23253;BME280;11795;47.054;15.408;2023-04-07T00:40:00;97300;;;3.2;52.2
23253;BME280;11795;47.054;15.408;2023-04-07T00:42:02;97300;;;3.0;52.7
23253;BME280;11795;47.054;15.408;2023-04-07T00:44:01;97300;;;3.2;52.5
23253;BME280;11795;47.054;15.408;2023-04-07T00:46:00;97300;;;3.0;52.9
23253;BME280;11795;47.054;15.408;2023-04-07T00:48:00;97300;;;2.9;53.2
23253;BME280;11795;47.054;15.408;2023-04-07T00:50:02;97300;;;3.0;52.9
23253;BME280;11795;47.054;15.408;2023-04-07T00:52:00;97300;;;2.8;53.4
23253;BME280;11795;47.054;15.408;2023-04-07T00:54:00;97300;;;3.0;53.1
23253;BME280;11795;47.054;15.408;2023-04-07T00:56:01;97300;;;2.8;53.4
23253;BME280;11795;47.054;15.408;2023-04-07T00:58:00;97300;;;2.8;53.7
23253;BME280;11795;47.054;15.408;2023-04-07T01:00:00;97300;;;2.9;53.3
23253;BME280;11795;47.054;15.408;2023-04-07T01:02:02;97300;;;2.8;53.7
23253;BME280;11795;47.054;15.408;2023-04-07T01:04:04;97290;;;3.0;53.6
23253;BME280;11795;47.054;15.408;2023-04-07T01:06:01;97290;;;2.8;54.0
23253;BME280;11795;47.054;15.408;2023-04-07T01:08:07;97290;;;2.7;54.2
23253;BME280;11795;47.054;15.408;2023-04-07T01:10:02;97290;;;2.8;53.5
23253;BME280;11795;47.054;15.408;2023-04-07T01:12:04;97290;;;2.7;54.0
23253;BME280;11795;47.054;15.408;2023-04-07T01:14:00;97290;;;2.9;53.4
23253;BME280;11795;47.054;15.408;2023-04-07T01:16:04;97280;;;2.7;53.9
23253;BME280;11795;47.054;15.408;2023-04-07T01:18:07;97280;;;2.7;54.7
23253;BME280;11795;47.054;15.408;2023-04-07T01:20:02;97280;;;2.7;54.4
23253;BME280;11795;47.054;15.408;2023-04-07T01:22:02;97280;;;2.5;54.9
23253;BME280;11795;47.054;15.408;2023-04-07T01:24:10;97280;;;2.7;54.7
23253;BME280;11795;47.054;15.408;2023-04-07T01:26:09;97280;;;2.5;54.9
23253;BME280;11795;47.054;15.408;2023-04-07T01:28:18;97270;;;2.7;54.7
23253;BME280;11795;47.054;15.408;2023-04-07T01:30:02;97280;;;2.6;54.7
23253;BME280;11795;47.054;15.408;2023-04-07T01:32:03;97270;;;2.4;55.3
23253;BME280;11795;47.054;15.408;2023-04-07T01:34:02;97270;;;2.6;55.0
23253;BME280;11795;47.054;15.408;2023-04-07T01:36:01;97270;;;2.4;55.4
23253;BME280;11795;47.054;15.408;2023-04-07T01:38:01;97280;;;2.4;55.6
23253;BME280;11795;47.054;15.408;2023-04-07T01:40:01;97270;;;2.5;55.2
23253;BME280;11795;47.054;15.408;2023-04-07T01:42:02;97280;;;2.4;55.6
23253;BME280;11795;47.054;15.408;2023-04-07T01:44:01;97280;;;2.6;55.2
23253;BME280;11795;47.054;15.408;2023-04-07T01:46:01;97270;;;2.4;55.4
23253;BME280;11795;47.054;15.408;2023-04-07T01:48:01;97270;;;2.3;55.7
23253;BME280;11795;47.054;15.408;2023-04-07T01:50:01;97270;;;2.5;55.5
23253;BME280;11795;47.054;15.408;2023-04-07T01:52:01;97260;;;2.3;55.8
23253;BME280;11795;47.054;15.408;2023-04-07T01:54:00;97270;;;2.5;55.6
23253;BME280;11795;47.054;15.408;2023-04-07T01:56:00;97260;;;2.3;55.9
23253;BME280;11795;47.054;15.408;2023-04-07T01:58:03;97270;;;2.3;56.1
23253;BME280;11795;47.054;15.408;2023-04-07T02:00:00;97270;;;2.3;56.1
23253;BME280;11795;47.054;15.408;2023-04-07T02:02:00;97270;;;2.2;56.4
23253;BME280;11795;47.054;15.408;2023-04-07T02:04:06;97260;;;2.4;56.0
23253;BME280;11795;47.054;15.408;2023-04-07T02:06:04;97260;;;2.1;57.2
23253;BME280;11795;47.054;15.408;2023-04-07T02:08:03;97260;;;2.1;57.1
23253;BME280;11795;47.054;15.408;2023-04-07T02:10:02;97260;;;2.3;56.4
23253;BME280;11795;47.054;15.408;2023-04-07T02:12:03;97260;;;2.1;56.7
23253;BME280;11795;47.054;15.408;2023-04-07T02:14:01;97250;;;2.4;56.3
23253;BME280;11795;47.054;15.408;2023-04-07T02:16:01;97260;;;2.2;56.4
23253;BME280;11795;47.054;15.408;2023-04-07T02:18:01;97260;;;2.1;56.6
23253;BME280;11795;47.054;15.408;2023-04-07T02:20:01;97260;;;2.2;56.5
23253;BME280;11795;47.054;15.408;2023-04-07T02:22:02;97260;;;2.1;56.9
23253;BME280;11795;47.054;15.408;2023-04-07T02:24:01;97260;;;2.3;56.7
23253;BME280;11795;47.054;15.408;2023-04-07T02:26:00;97260;;;2.1;56.9
23253;BME280;11795;47.054;15.408;2023-04-07T02:28:00;97270;;;2.0;57.2
23253;BME280;11795;47.054;15.408;2023-04-07T02:30:00;97260;;;2.2;56.7
23253;BME280;11795;47.054;15.408;2023-04-07T02:32:00;97270;;;2.1;57.0
23253;BME280;11795;47.054;15.408;2023-04-07T02:34:00;97260;;;2.3;56.8
23253;BME280;11795;47.054;15.408;2023-04-07T02:36:00;97260;;;2.1;57.1
23253;BME280;11795;47.054;15.408;2023-04-07T02:38:00;97260;;;2.0;57.4
23253;BME280;11795;47.054;15.408;2023-04-07T02:40:00;97260;;;2.1;57.0
23253;BME280;11795;47.054;15.408;2023-04-07T02:42:00;97260;;;2.0;57.4
23253;BME280;11795;47.054;15.408;2023-04-07T02:44:00;97260;;;2.2;57.1
23253;BME280;11795;47.054;15.408;2023-04-07T02:46:00;97260;;;2.0;57.3
23253;BME280;11795;47.054;15.408;2023-04-07T02:48:00;97260;;;2.0;57.6
23253;BME280;11795;47.054;15.408;2023-04-07T02:50:01;97260;;;2.0;57.3
23253;BME280;11795;47.054;15.408;2023-04-07T02:52:00;97260;;;1.9;58.0
23253;BME280;11795;47.054;15.408;2023-04-07T02:54:00;97260;;;2.1;57.6
23253;BME280;11795;47.054;15.408;2023-04-07T02:56:00;97250;;;2.0;57.7
23253;BME280;11795;47.054;15.408;2023-04-07T02:58:00;97260;;;1.9;57.9
23253;BME280;11795;47.054;15.408;2023-04-07T03:00:01;97250;;;2.0;57.4
23253;BME280;11795;47.054;15.408;2023-04-07T03:02:00;97250;;;1.9;57.8
23253;BME280;11795;47.054;15.408;2023-04-07T03:04:00;97250;;;2.2;57.4
23253;BME280;11795;47.054;15.408;2023-04-07T03:06:00;97250;;;2.0;57.4
23253;BME280;11795;47.054;15.408;2023-04-07T03:08:00;97240;;;2.0;57.8
23253;BME280;11795;47.054;15.408;2023-04-07T03:10:00;97250;;;2.1;57.5
23253;BME280;11795;47.054;15.408;2023-04-07T03:12:01;97240;;;2.0;58.0
23253;BME280;11795;47.054;15.408;2023-04-07T03:14:00;97240;;;2.0;58.0
23253;BME280;11795;47.054;15.408;2023-04-07T03:16:00;97240;;;2.0;58.0
23253;BME280;11795;47.054;15.408;2023-04-07T03:18:00;97240;;;1.9;58.4
23253;BME280;11795;47.054;15.408;2023-04-07T03:20:01;97240;;;2.0;57.9
23253;BME280;11795;47.054;15.408;2023-04-07T03:22:00;97230;;;1.9;58.2
23253;BME280;11795;47.054;15.408;2023-04-07T03:24:00;97230;;;2.1;57.9
23253;BME280;11795;47.054;15.408;2023-04-07T03:26:00;97230;;;2.0;57.9
23253;BME280;11795;47.054;15.408;2023-04-07T03:28:00;97230;;;1.9;58.2
23253;BME280;11795;47.054;15.408;2023-04-07T03:30:00;97220;;;2.1;57.6
23253;BME280;11795;47.054;15.408;2023-04-07T03:32:00;97220;;;2.0;57.9
23253;BME280;11795;47.054;15.408;2023-04-07T03:34:00;97230;;;2.2;57.8
23253;BME280;11795;47.054;15.408;2023-04-07T03:36:00;97220;;;2.1;57.9
23253;BME280;11795;47.054;15.408;2023-04-07T03:38:00;97230;;;2.0;58.2
23253;BME280;11795;47.054;15.408;2023-04-07T03:40:01;97210;;;2.2;57.7
23253;BME280;11795;47.054;15.408;2023-04-07T03:42:00;97220;;;2.0;58.1
23253;BME280;11795;47.054;15.408;2023-04-07T03:44:00;97210;;;2.3;58.1
23253;BME280;11795;47.054;15.408;2023-04-07T03:46:00;97210;;;2.1;58.2
23253;BME280;11795;47.054;15.408;2023-04-07T03:48:01;97220;;;2.0;58.4
23253;BME280;11795;47.054;15.408;2023-04-07T03:50:00;97210;;;2.2;57.9
23253;BME280;11795;47.054;15.408;2023-04-07T03:52:00;97220;;;2.0;58.2
23253;BME280;11795;47.054;15.408;2023-04-07T03:54:01;97210;;;2.3;58.0
23253;BME280;11795;47.054;15.408;2023-04-07T03:56:01;97210;;;2.1;58.0
23253;BME280;11795;47.054;15.408;2023-04-07T03:58:00;97210;;;2.0;58.3
23253;BME280;11795;47.054;15.408;2023-04-07T04:00:00;97210;;;2.2;57.8
23253;BME280;11795;47.054;15.408;2023-04-07T04:02:00;97210;;;2.1;58.1
23253;BME280;11795;47.054;15.408;2023-04-07T04:04:01;97210;;;2.3;57.8
23253;BME280;11795;47.054;15.408;2023-04-07T04:06:00;97220;;;2.2;58.0
23253;BME280;11795;47.054;15.408;2023-04-07T04:08:00;97220;;;2.1;58.3
23253;BME280;11795;47.054;15.408;2023-04-07T04:10:00;97220;;;2.2;57.9
23253;BME280;11795;47.054;15.408;2023-04-07T04:12:00;97210;;;2.1;58.3
23253;BME280;11795;47.054;15.408;2023-04-07T04:14:00;97220;;;2.3;58.0
23253;BME280;11795;47.054;15.408;2023-04-07T04:16:01;97220;;;2.2;58.1
23253;BME280;11795;47.054;15.408;2023-04-07T04:18:00;97220;;;2.1;58.1
23253;BME280;11795;47.054;15.408;2023-04-07T04:20:01;97220;;;2.3;57.8
23253;BME280;11795;47.054;15.408;2023-04-07T04:22:00;97220;;;2.2;58.2
23253;BME280;11795;47.054;15.408;2023-04-07T04:24:00;97220;;;2.4;57.9
23253;BME280;11795;47.054;15.408;2023-04-07T04:26:02;97220;;;2.2;58.2
23253;BME280;11795;47.054;15.408;2023-04-07T04:28:00;97220;;;2.2;58.3
23253;BME280;11795;47.054;15.408;2023-04-07T04:30:00;97220;;;2.3;58.0
23253;BME280;11795;47.054;15.408;2023-04-07T04:32:00;97220;;;2.2;58.5
23253;BME280;11795;47.054;15.408;2023-04-07T04:34:00;97230;;;2.4;58.2
23253;BME280;11795;47.054;15.408;2023-04-07T04:36:01;97230;;;2.2;58.6
23253;BME280;11795;47.054;15.408;2023-04-07T04:38:00;97220;;;2.2;58.7
23253;BME280;11795;47.054;15.408;2023-04-07T04:40:01;97230;;;2.4;58.2
23253;BME280;11795;47.054;15.408;2023-04-07T04:42:01;97230;;;2.3;58.4
23253;BME280;11795;47.054;15.408;2023-04-07T04:44:00;97230;;;2.5;58.1
23253;BME280;11795;47.054;15.408;2023-04-07T04:46:00;97220;;;2.3;58.4
23253;BME280;11795;47.054;15.408;2023-04-07T04:48:00;97230;;;2.3;58.6
23253;BME280;11795;47.054;15.408;2023-04-07T04:50:00;97230;;;2.5;58.0
23253;BME280;11795;47.054;15.408;2023-04-07T04:52:00;97230;;;2.3;58.4
23253;BME280;11795;47.054;15.408;2023-04-07T04:54:03;97230;;;2.5;58.3
23253;BME280;11795;47.054;15.408;2023-04-07T04:56:00;97230;;;2.4;58.5
23253;BME280;11795;47.054;15.408;2023-04-07T04:58:00;97230;;;2.3;58.8
23253;BME280;11795;47.054;15.408;2023-04-07T05:00:00;97230;;;2.5;58.3
23253;BME280;11795;47.054;15.408;2023-04-07T05:02:00;97230;;;2.3;58.7
23253;BME280;11795;47.054;15.408;2023-04-07T05:04:00;97230;;;2.5;58.5
23253;BME280;11795;47.054;15.408;2023-04-07T05:06:00;97230;;;2.5;58.6
23253;BME280;11795;47.054;15.408;2023-04-07T05:08:00;97230;;;2.5;58.7
23253;BME280;11795;47.054;15.408;2023-04-07T05:10:00;97230;;;2.7;58.1
23253;BME280;11795;47.054;15.408;2023-04-07T05:12:01;97230;;;2.6;58.3
23253;BME280;11795;47.054;15.408;2023-04-07T05:14:00;97230;;;2.8;58.0
23253;BME280;11795;47.054;15.408;2023-04-07T05:16:00;97240;;;2.7;57.8
23253;BME280;11795;47.054;15.408;2023-04-07T05:18:00;97240;;;2.7;57.9
23253;BME280;11795;47.054;15.408;2023-04-07T05:20:00;97240;;;2.9;57.0
23253;BME280;11795;47.054;15.408;2023-04-07T05:22:00;97240;;;2.8;57.3
23253;BME280;11795;47.054;15.408;2023-04-07T05:24:00;97240;;;3.0;57.0
23253;BME280;11795;47.054;15.408;2023-04-07T05:26:00;97230;;;3.0;56.8
23253;BME280;11795;47.054;15.408;2023-04-07T05:28:00;97240;;;3.0;57.0
23253;BME280;11795;47.054;15.408;2023-04-07T05:30:00;97240;;;3.2;56.4
23253;BME280;11795;47.054;15.408;2023-04-07T05:32:00;97240;;;3.2;56.7
23253;BME280;11795;47.054;15.408;2023-04-07T05:34:00;97240;;;3.4;56.9
23253;BME280;11795;47.054;15.408;2023-04-07T05:36:00;97240;;;3.3;56.9
23253;BME280;11795;47.054;15.408;2023-04-07T05:38:00;97240;;;3.2;57.1
23253;BME280;11795;47.054;15.408;2023-04-07T05:40:00;97240;;;3.4;56.6
23253;BME280;11795;47.054;15.408;2023-04-07T05:42:01;97240;;;3.3;56.8
23253;BME280;11795;47.054;15.408;2023-04-07T05:44:00;97240;;;3.5;56.4
23253;BME280;11795;47.054;15.408;2023-04-07T05:46:00;97240;;;3.5;56.2
23253;BME280;11795;47.054;15.408;2023-04-07T05:48:00;97240;;;3.5;56.3
23253;BME280;11795;47.054;15.408;2023-04-07T05:50:00;97240;;;3.8;55.7
23253;BME280;11795;47.054;15.408;2023-04-07T05:52:02;97230;;;3.7;55.9
23253;BME280;11795;47.054;15.408;2023-04-07T05:54:01;97230;;;3.9;55.6
23253;BME280;11795;47.054;15.408;2023-04-07T05:56:00;97230;;;3.8;55.2
23253;BME280;11795;47.054;15.408;2023-04-07T05:58:01;97230;;;3.8;55.4
23253;BME280;11795;47.054;15.408;2023-04-07T06:00:00;97240;;;4.0;54.7
23253;BME280;11795;47.054;15.408;2023-04-07T06:02:01;97230;;;3.9;55.2
23253;BME280;11795;47.054;15.408;2023-04-07T06:04:02;97230;;;4.1;55.1
23253;BME280;11795;47.054;15.408;2023-04-07T06:06:00;97230;;;4.1;55.1
23253;BME280;11795;47.054;15.408;2023-04-07T06:08:00;97230;;;4.0;55.3
23253;BME280;11795;47.054;15.408;2023-04-07T06:10:00;97230;;;4.2;54.9
23253;BME280;11795;47.054;15.408;2023-04-07T06:12:01;97230;;;4.2;55.1
23253;BME280;11795;47.054;15.408;2023-04-07T06:14:00;97230;;;4.3;54.9
23253;BME280;11795;47.054;15.408;2023-04-07T06:16:00;97230;;;4.4;54.6
23253;BME280;11795;47.054;15.408;2023-04-07T06:18:00;97230;;;4.4;54.7
23253;BME280;11795;47.054;15.408;2023-04-07T06:20:00;97220;;;4.6;53.9
23253;BME280;11795;47.054;15.408;2023-04-07T06:22:00;97230;;;4.6;54.2
23253;BME280;11795;47.054;15.408;2023-04-07T06:24:00;97230;;;4.8;53.8
23253;BME280;11795;47.054;15.408;2023-04-07T06:26:00;97230;;;4.9;53.7
23253;BME280;11795;47.054;15.408;2023-04-07T06:28:01;97230;;;5.1;53.8
23253;BME280;11795;47.054;15.408;2023-04-07T06:30:00;97230;;;5.5;52.1
23253;BME280;11795;47.054;15.408;2023-04-07T06:32:01;97230;;;5.5;51.6
23253;BME280;11795;47.054;15.408;2023-04-07T06:34:00;97230;;;5.8;51.5
23253;BME280;11795;47.054;15.408;2023-04-07T06:36:00;97220;;;5.9;51.1
23253;BME280;11795;47.054;15.408;2023-04-07T06:38:01;97220;;;5.9;50.1
23253;BME280;11795;47.054;15.408;2023-04-07T06:40:00;97220;;;6.2;49.9
23253;BME280;11795;47.054;15.408;2023-04-07T06:42:00;97220;;;6.2;49.3
23253;BME280;11795;47.054;15.408;2023-04-07T06:44:00;97220;;;6.3;49.2
23253;BME280;11795;47.054;15.408;2023-04-07T06:46:00;97220;;;6.4;48.6
23253;BME280;11795;47.054;15.408;2023-04-07T06:48:00;97220;;;6.5;49.0
23253;BME280;11795;47.054;15.408;2023-04-07T06:50:00;97220;;;6.9;48.4
23253;BME280;11795;47.054;15.408;2023-04-07T06:52:00;97210;;;6.9;48.2
23253;BME280;11795;47.054;15.408;2023-04-07T06:54:00;97220;;;7.2;47.9
23253;BME280;11795;47.054;15.408;2023-04-07T06:56:02;97210;;;7.4;47.3
23253;BME280;11795;47.054;15.408;2023-04-07T06:58:01;97210;;;7.5;46.7
23253;BME280;11795;47.054;15.408;2023-04-07T07:00:00;97210;;;7.7;46.3
23253;BME280;11795;47.054;15.408;2023-04-07T07:02:00;97210;;;7.7;46.0
23253;BME280;11795;47.054;15.408;2023-04-07T07:04:00;97210;;;7.9;45.5
23253;BME280;11795;47.054;15.408;2023-04-07T07:06:01;97210;;;8.0;45.2
23253;BME280;11795;47.054;15.408;2023-04-07T07:08:00;97210;;;8.1;45.5
23253;BME280;11795;47.054;15.408;2023-04-07T07:10:00;97210;;;8.3;43.7
23253;BME280;11795;47.054;15.408;2023-04-07T07:12:01;97210;;;8.2;44.3
23253;BME280;11795;47.054;15.408;2023-04-07T07:14:00;97210;;;8.5;44.3
23253;BME280;11795;47.054;15.408;2023-04-07T07:16:00;97210;;;8.7;43.3
23253;BME280;11795;47.054;15.408;2023-04-07T07:18:00;97200;;;8.9;43.1
23253;BME280;11795;47.054;15.408;2023-04-07T07:20:00;97200;;;9.2;42.0
23253;BME280;11795;47.054;15.408;2023-04-07T07:22:01;97210;;;9.2;41.6
23253;BME280;11795;47.054;15.408;2023-04-07T07:24:00;97200;;;9.3;41.4
23253;BME280;11795;47.054;15.408;2023-04-07T07:26:01;97200;;;9.3;40.4
23253;BME280;11795;47.054;15.408;2023-04-07T07:28:00;97200;;;9.3;41.2
23253;BME280;11795;47.054;15.408;2023-04-07T07:30:00;97200;;;9.4;41.5
23253;BME280;11795;47.054;15.408;2023-04-07T07:32:00;97200;;;9.4;41.6
23253;BME280;11795;47.054;15.408;2023-04-07T07:34:00;97200;;;9.5;41.5
23253;BME280;11795;47.054;15.408;2023-04-07T07:36:00;97200;;;9.7;41.0
23253;BME280;11795;47.054;15.408;2023-04-07T07:38:00;97200;;;9.8;40.9
23253;BME280;11795;47.054;15.408;2023-04-07T07:40:00;97200;;;10.1;40.2
23253;BME280;11795;47.054;15.408;2023-04-07T07:42:01;97200;;;10.2;40.0
23253;BME280;11795;47.054;15.408;2023-04-07T07:44:00;97200;;;10.3;40.1
23253;BME280;11795;47.054;15.408;2023-04-07T07:46:00;97200;;;10.4;38.2
23253;BME280;11795;47.054;15.408;2023-04-07T07:48:00;97200;;;10.2;38.9
23253;BME280;11795;47.054;15.408;2023-04-07T07:50:00;97200;;;10.4;39.1
23253;BME280;11795;47.054;15.408;2023-04-07T07:52:01;97190;;;10.6;37.4
23253;BME280;11795;47.054;15.408;2023-04-07T07:54:00;97190;;;10.7;38.1
23253;BME280;11795;47.054;15.408;2023-04-07T07:56:01;97190;;;11.0;37.6
23253;BME280;11795;47.054;15.408;2023-04-07T07:58:00;97190;;;11.0;36.8
23253;BME280;11795;47.054;15.408;2023-04-07T08:00:00;97190;;;11.4;36.7
23253;BME280;11795;47.054;15.408;2023-04-07T08:02:00;97180;;;11.7;36.4
23253;BME280;11795;47.054;15.408;2023-04-07T08:04:00;97180;;;12.0;36.0
23253;BME280;11795;47.054;15.408;2023-04-07T08:06:00;97180;;;12.4;35.6
23253;BME280;11795;47.054;15.408;2023-04-07T08:08:00;97180;;;12.6;34.4
23253;BME280;11795;47.054;15.408;2023-04-07T08:10:00;97180;;;12.7;33.4
23253;BME280;11795;47.054;15.408;2023-04-07T08:12:00;97180;;;12.2;31.4
23253;BME280;11795;47.054;15.408;2023-04-07T08:14:00;97180;;;12.4;31.6
23253;BME280;11795;47.054;15.408;2023-04-07T08:16:00;97180;;;12.6;31.1
23253;BME280;11795;47.054;15.408;2023-04-07T08:18:03;97170;;;12.6;31.0
23253;BME280;11795;47.054;15.408;2023-04-07T08:20:00;97180;;;12.9;31.0
23253;BME280;11795;47.054;15.408;2023-04-07T08:22:00;97170;;;13.1;31.1
23253;BME280;11795;47.054;15.408;2023-04-07T08:24:01;97170;;;13.4;30.4
23253;BME280;11795;47.054;15.408;2023-04-07T08:26:00;97170;;;13.6;29.8
23253;BME280;11795;47.054;15.408;2023-04-07T08:28:00;97160;;;13.6;29.7
23253;BME280;11795;47.054;15.408;2023-04-07T08:30:02;97160;;;13.7;29.3
23253;BME280;11795;47.054;15.408;2023-04-07T08:32:00;97160;;;13.4;28.5
23253;BME280;11795;47.054;15.408;2023-04-07T08:34:00;97160;;;13.6;28.8
23253;BME280;11795;47.054;15.408;2023-04-07T08:36:00;97160;;;13.6;28.5
23253;BME280;11795;47.054;15.408;2023-04-07T08:38:02;97150;;;13.7;28.8
23253;BME280;11795;47.054;15.408;2023-04-07T08:40:01;97150;;;13.7;27.6
23253;BME280;11795;47.054;15.408;2023-04-07T08:42:00;97150;;;13.8;28.5
23253;BME280;11795;47.054;15.408;2023-04-07T08:44:01;97150;;;13.9;28.3
23253;BME280;11795;47.054;15.408;2023-04-07T08:46:01;97140;;;14.4;28.3
23253;BME280;11795;47.054;15.408;2023-04-07T08:48:03;97140;;;14.6;27.9
23253;BME280;11795;47.054;15.408;2023-04-07T08:50:03;97140;;;14.6;26.3
23253;BME280;11795;47.054;15.408;2023-04-07T08:52:02;97140;;;14.3;26.7
23253;BME280;11795;47.054;15.408;2023-04-07T08:54:04;97130;;;14.4;27.3
23253;BME280;11795;47.054;15.408;2023-04-07T08:56:01;97130;;;14.7;27.5
23253;BME280;11795;47.054;15.408;2023-04-07T08:58:02;97130;;;14.9;26.5
23253;BME280;11795;47.054;15.408;2023-04-07T09:00:05;97130;;;14.8;25.8
23253;BME280;11795;47.054;15.408;2023-04-07T09:02:01;97130;;;14.8;26.6
23253;BME280;11795;47.054;15.408;2023-04-07T09:04:01;97130;;;15.2;26.8
23253;BME280;11795;47.054;15.408;2023-04-07T09:06:00;97130;;;15.5;25.8
23253;BME280;11795;47.054;15.408;2023-04-07T09:08:01;97120;;;15.5;26.0
23253;BME280;11795;47.054;15.408;2023-04-07T09:10:00;97120;;;15.4;25.7
23253;BME280;11795;47.054;15.408;2023-04-07T09:12:00;97120;;;15.4;26.3
23253;BME280;11795;47.054;15.408;2023-04-07T09:14:00;97120;;;15.4;26.3
23253;BME280;11795;47.054;15.408;2023-04-07T09:16:01;97120;;;15.2;25.9
23253;BME280;11795;47.054;15.408;2023-04-07T09:18:01;97120;;;15.0;26.2
23253;BME280;11795;47.054;15.408;2023-04-07T09:20:01;97120;;;14.8;26.3
23253;BME280;11795;47.054;15.408;2023-04-07T09:22:00;97120;;;14.6;26.7
23253;BME280;11795;47.054;15.408;2023-04-07T09:24:19;97120;;;14.9;27.2
23253;BME280;11795;47.054;15.408;2023-04-07T09:26:18;97120;;;14.8;25.5
23253;BME280;11795;47.054;15.408;2023-04-07T09:28:02;97120;;;14.7;25.7
23253;BME280;11795;47.054;15.408;2023-04-07T09:30:09;97120;;;14.8;26.7
23253;BME280;11795;47.054;15.408;2023-04-07T09:32:00;97120;;;14.8;26.3
23253;BME280;11795;47.054;15.408;2023-04-07T09:34:02;97110;;;14.7;26.1
23253;BME280;11795;47.054;15.408;2023-04-07T09:36:00;97110;;;14.9;25.5
23253;BME280;11795;47.054;15.408;2023-04-07T09:38:02;97110;;;14.9;25.7
23253;BME280;11795;47.054;15.408;2023-04-07T09:40:00;97110;;;15.1;25.4
23253;BME280;11795;47.054;15.408;2023-04-07T09:42:05;97100;;;15.3;25.0
23253;BME280;11795;47.054;15.408;2023-04-07T09:44:00;97100;;;15.4;25.1
23253;BME280;11795;47.054;15.408;2023-04-07T09:46:06;97100;;;15.7;24.8
23253;BME280;11795;47.054;15.408;2023-04-07T09:48:04;97100;;;15.5;24.8
23253;BME280;11795;47.054;15.408;2023-04-07T09:50:06;97100;;;15.2;24.2
23253;BME280;11795;47.054;15.408;2023-04-07T09:52:04;97110;;;15.0;24.4
23253;BME280;11795;47.054;15.408;2023-04-07T09:54:00;97100;;;14.7;25.0
23253;BME280;11795;47.054;15.408;2023-04-07T09:56:00;97100;;;14.8;25.2
23253;BME280;11795;47.054;15.408;2023-04-07T09:58:00;97100;;;15.0;25.9
23253;BME280;11795;47.054;15.408;2023-04-07T10:00:01;97100;;;15.5;25.3
23253;BME280;11795;47.054;15.408;2023-04-07T10:02:01;97100;;;15.6;25.0
23253;BME280;11795;47.054;15.408;2023-04-07T10:04:01;97090;;;15.5;25.0
23253;BME280;11795;47.054;15.408;2023-04-07T10:06:01;97090;;;15.8;24.4
23253;BME280;11795;47.054;15.408;2023-04-07T10:08:01;97090;;;15.6;24.4
23253;BME280;11795;47.054;15.408;2023-04-07T10:10:01;97080;;;15.6;25.0
23253;BME280;11795;47.054;15.408;2023-04-07T10:12:01;97080;;;15.6;25.0
23253;BME280;11795;47.054;15.408;2023-04-07T10:14:00;97090;;;15.9;24.8
23253;BME280;11795;47.054;15.408;2023-04-07T10:16:02;97090;;;16.1;24.1
23253;BME280;11795;47.054;15.408;2023-04-07T10:18:04;97080;;;16.2;24.3
23253;BME280;11795;47.054;15.408;2023-04-07T10:20:03;97070;;;16.4;24.4
23253;BME280;11795;47.054;15.408;2023-04-07T10:22:02;97080;;;16.5;23.5
23253;BME280;11795;47.054;15.408;2023-04-07T10:24:08;97070;;;16.2;22.9
23253;BME280;11795;47.054;15.408;2023-04-07T10:26:02;97070;;;16.2;22.6
23253;BME280;11795;47.054;15.408;2023-04-07T10:28:04;97070;;;16.1;23.2
23253;BME280;11795;47.054;15.408;2023-04-07T10:30:02;97070;;;15.9;23.5
23253;BME280;11795;47.054;15.408;2023-04-07T10:32:01;97060;;;15.7;23.4
23253;BME280;11795;47.054;15.408;2023-04-07T10:34:01;97060;;;15.9;23.2
23253;BME280;11795;47.054;15.408;2023-04-07T10:36:03;97060;;;16.0;23.6
23253;BME280;11795;47.054;15.408;2023-04-07T10:38:10;97060;;;15.9;24.0
23253;BME280;11795;47.054;15.408;2023-04-07T10:42:01;97050;;;16.3;22.7
23253;BME280;11795;47.054;15.408;2023-04-07T10:44:02;97050;;;16.5;23.1
23253;BME280;11795;47.054;15.408;2023-04-07T10:46:00;97040;;;16.4;22.7
23253;BME280;11795;47.054;15.408;2023-04-07T10:48:08;97050;;;16.2;23.5
23253;BME280;11795;47.054;15.408;2023-04-07T10:50:14;97050;;;16.6;23.1
23253;BME280;11795;47.054;15.408;2023-04-07T10:52:20;97040;;;16.4;23.2
23253;BME280;11795;47.054;15.408;2023-04-07T10:54:13;97030;;;16.8;24.3
23253;BME280;11795;47.054;15.408;2023-04-07T10:56:01;97030;;;16.9;23.7
23253;BME280;11795;47.054;15.408;2023-04-07T10:58:12;97030;;;16.9;22.4
23253;BME280;11795;47.054;15.408;2023-04-07T11:00:14;97040;;;17.0;22.3
23253;BME280;11795;47.054;15.408;2023-04-07T11:04:00;97030;;;17.1;22.3
23253;BME280;11795;47.054;15.408;2023-04-07T11:06:02;97030;;;17.1;22.1
23253;BME280;11795;47.054;15.408;2023-04-07T11:08:04;97030;;;17.2;22.5
23253;BME280;11795;47.054;15.408;2023-04-07T11:10:07;97030;;;16.9;22.3
23253;BME280;11795;47.054;15.408;2023-04-07T11:12:00;97030;;;16.7;21.8
23253;BME280;11795;47.054;15.408;2023-04-07T11:14:00;97020;;;16.6;22.4
23253;BME280;11795;47.054;15.408;2023-04-07T11:16:00;97020;;;16.7;22.3
23253;BME280;11795;47.054;15.408;2023-04-07T11:18:10;97020;;;16.2;22.0
23253;BME280;11795;47.054;15.408;2023-04-07T11:20:00;97010;;;16.4;22.8